createdAt,value
2023-08-25T05:40:01.363Z,75.59
2023-08-25T05:48:26.852Z,73.80
2023-08-25T05:50:54.269Z,73.48
2023-08-25T05:53:21.776Z,73.24
2023-08-25T05:55:51.738Z,73.12
2023-08-25T06:32:49.073Z,76.68
2023-08-25T06:48:03.786Z,73.05
2023-08-25T06:50:31.742Z,73.97
2023-08-25T07:06:02.328Z,74.25
2023-08-25T07:08:29.792Z,74.95
2023-08-25T07:18:05.062Z,74.63
2023-08-25T07:20:32.665Z,74.43
2023-08-25T07:23:00.478Z,74.15
2023-08-25T07:25:28.090Z,73.84
2023-08-25T07:27:55.821Z,73.57
2023-08-25T07:30:23.680Z,74.10
2023-08-25T07:32:54.227Z,73.52
2023-08-25T07:35:21.784Z,71.90
2023-08-25T07:37:50.921Z,72.58
2023-08-25T07:40:20.772Z,72.28
2023-08-25T07:42:49.903Z,72.51
2023-08-25T07:45:17.602Z,72.65
2023-08-25T07:47:45.186Z,71.51
2023-08-25T07:50:12.641Z,72.73
2023-08-25T07:52:40.174Z,72.12
2023-08-25T07:55:08.156Z,72.03
2023-08-25T07:57:36.548Z,71.23
2023-08-25T08:00:07.438Z,71.48
2023-08-25T08:02:34.963Z,70.71
2023-08-25T08:05:02.401Z,71.45
2023-08-25T08:07:29.933Z,70.55
2023-08-25T08:09:57.390Z,71.91
2023-08-25T08:12:24.812Z,71.80
2023-08-25T08:14:52.272Z,70.32
2023-08-25T08:17:21.492Z,70.75
2023-08-25T08:19:49.462Z,69.29
2023-08-25T08:22:18.611Z,69.89
2023-08-25T08:24:51.083Z,68.78
2023-08-25T08:27:20.294Z,69.42
2023-08-25T08:29:49.195Z,69.24
2023-08-25T08:32:17.732Z,69.44
2023-08-25T08:34:45.659Z,68.16
2023-08-25T08:37:13.177Z,68.11
2023-08-25T08:39:40.682Z,67.50
2023-08-25T08:42:11.382Z,68.80
2023-08-25T08:44:41.432Z,68.22
2023-08-25T08:47:10.912Z,66.69
2023-08-25T08:49:39.473Z,67.31
2023-08-25T08:52:08.160Z,66.60
2023-08-25T08:54:42.775Z,66.75
2023-08-25T08:57:10.330Z,66.09
2023-08-25T08:59:37.802Z,67.34
2023-08-25T09:02:06.653Z,66.22
2023-08-25T09:04:38.735Z,66.77
2023-08-25T09:07:08.184Z,65.17
2023-08-25T09:09:35.723Z,65.81
2023-08-25T09:12:03.542Z,66.78
2023-08-25T09:14:31.527Z,65.17
2023-08-25T09:17:03.455Z,65.66
2023-08-25T09:19:33.699Z,65.19
2023-08-25T09:22:02.754Z,65.47
2023-08-25T09:24:31.697Z,65.59
2023-08-25T09:26:59.222Z,63.98
2023-08-25T09:29:27.698Z,64.79
2023-08-25T09:31:55.205Z,64.72
2023-08-25T09:34:23.201Z,64.71
2023-08-25T09:36:57.852Z,63.88
2023-08-25T09:39:26.073Z,63.74
2023-08-25T09:41:53.693Z,63.69
2023-08-25T09:44:21.155Z,63.33
2023-08-25T09:46:51.336Z,63.82
2023-08-25T09:49:18.837Z,63.18
2023-08-25T09:51:49.651Z,63.60
2023-08-25T09:54:20.269Z,62.75
2023-08-25T09:56:49.415Z,62.60
2023-08-25T09:59:17.822Z,61.28
2023-08-25T10:01:47.143Z,60.46
2023-08-25T10:04:15.142Z,59.25
2023-08-25T10:06:42.928Z,59.31
2023-08-25T10:09:10.874Z,59.59
2023-08-25T10:11:49.824Z,59.38
2023-08-25T10:14:18.457Z,59.61
2023-08-25T10:16:54.015Z,59.24
2023-08-25T10:19:32.773Z,59.08
2023-08-25T10:22:03.173Z,59.16
2023-08-25T10:24:32.971Z,59.34
2023-08-25T10:27:01.380Z,58.43
2023-08-25T10:29:30.216Z,58.10
2023-08-25T10:32:04.195Z,56.42
2023-08-25T10:34:47.442Z,56.87
2023-08-25T10:37:25.813Z,56.83
2023-08-25T10:40:00.844Z,57.10
2023-08-25T10:42:35.135Z,57.40
2023-08-25T10:45:12.394Z,55.54
2023-08-25T10:47:48.828Z,56.03
2023-08-25T10:50:23.857Z,55.14
2023-08-25T10:52:54.063Z,56.35
2023-08-25T10:55:31.161Z,55.61
2023-08-25T10:58:08.532Z,54.86
2023-08-25T11:00:44.870Z,54.80
2023-08-25T11:03:12.841Z,53.43
2023-08-25T11:05:45.207Z,51.04
2023-08-25T11:08:29.750Z,50.59
2023-08-25T11:11:16.546Z,49.77
2023-08-25T11:13:44.730Z,48.24
2023-08-25T11:16:14.721Z,48.94
2023-08-25T11:18:44.251Z,49.55
2023-08-25T11:21:12.279Z,48.94
2023-08-25T11:23:43.826Z,49.60
2023-08-25T11:26:18.971Z,49.50
2023-08-25T11:28:52.244Z,48.88
2023-08-25T11:31:24.938Z,47.73
2023-08-25T11:33:53.929Z,47.28
2023-08-25T11:36:26.311Z,47.81
2023-08-25T11:38:54.220Z,47.99
2023-08-25T11:41:24.392Z,47.09
2023-08-25T11:43:51.865Z,47.35
2023-08-25T11:46:20.499Z,46.15
2023-08-25T11:48:54.932Z,45.16
2023-08-25T11:51:22.401Z,45.27
2023-08-25T11:53:49.987Z,44.25
2023-08-25T11:56:20.788Z,43.49
2023-08-25T11:58:51.808Z,43.80
2023-08-25T12:01:19.422Z,43.29
2023-08-25T12:03:48.396Z,42.93
2023-08-25T12:06:16.679Z,42.68
2023-08-25T12:08:44.171Z,42.74
2023-08-25T12:11:12.227Z,41.69
2023-08-25T12:13:48.676Z,41.45
2023-08-25T12:16:20.192Z,41.08
2023-08-25T12:18:53.331Z,40.64
2023-08-25T12:21:21.012Z,40.56
2023-08-25T12:23:48.498Z,41.21
2023-08-25T12:26:15.956Z,41.52
2023-08-25T12:28:44.758Z,40.55
2023-08-25T12:31:12.386Z,41.29
2023-08-25T12:33:39.989Z,40.93
2023-08-25T12:36:08.080Z,42.16
2023-08-25T12:38:35.556Z,41.91
2023-08-25T12:41:03.282Z,43.39
2023-08-25T12:43:30.803Z,44.88
2023-08-25T12:45:58.547Z,44.91
2023-08-25T12:48:25.994Z,44.72
2023-08-25T12:50:53.558Z,45.04
2023-08-25T12:53:21.467Z,44.81
2023-08-25T12:55:48.998Z,44.81
2023-08-25T12:58:16.631Z,45.19
2023-08-25T13:00:44.286Z,45.97
2023-08-25T13:03:11.932Z,46.37
2023-08-25T13:05:39.642Z,46.74
2023-08-25T13:08:07.321Z,46.20
2023-08-25T13:10:34.812Z,46.37
2023-08-25T13:13:02.271Z,45.57
2023-08-25T13:15:32.225Z,45.34
2023-08-25T13:18:01.272Z,45.84
2023-08-25T13:20:29.222Z,44.90
2023-08-25T13:22:57.617Z,44.47
2023-08-25T13:25:26.359Z,45.16
2023-08-25T13:27:55.192Z,44.55
2023-08-25T13:30:23.628Z,45.62
2023-08-25T13:32:52.073Z,44.94
2023-08-25T13:35:19.737Z,42.74
2023-08-25T13:37:47.197Z,43.74
2023-08-25T13:40:14.715Z,43.15
2023-08-25T13:42:42.262Z,43.92
2023-08-25T13:45:11.020Z,42.10
2023-08-25T13:47:38.665Z,42.90
2023-08-25T13:50:07.783Z,43.25
2023-08-25T13:52:35.827Z,44.20
2023-08-25T13:55:04.190Z,45.25
2023-08-25T13:57:32.391Z,44.74
2023-08-25T14:00:00.501Z,45.07
2023-08-25T14:02:28.138Z,43.39
2023-08-25T14:04:55.753Z,44.24
2023-08-25T14:07:23.249Z,45.16
2023-08-25T14:09:50.961Z,46.03
2023-08-25T14:12:18.906Z,46.74
2023-08-25T14:14:47.035Z,46.44
2023-08-25T14:17:14.833Z,47.97
2023-08-25T14:19:42.368Z,48.11
2023-08-25T14:22:09.873Z,48.69
2023-08-25T14:24:37.742Z,48.82
2023-08-25T14:27:05.435Z,48.76
2023-08-25T14:29:32.965Z,49.56
2023-08-25T14:32:00.443Z,49.56
2023-08-25T14:34:30.218Z,48.43
2023-08-25T14:36:57.859Z,49.11
2023-08-25T14:39:25.374Z,49.94
2023-08-25T14:41:58.249Z,49.71
2023-08-25T14:44:26.379Z,49.98
2023-08-25T14:46:54.025Z,49.76
2023-08-25T14:49:21.611Z,49.33
2023-08-25T14:51:49.164Z,49.56
2023-08-25T14:54:16.809Z,50.09
2023-08-25T14:56:44.294Z,48.99
2023-08-25T14:59:11.960Z,48.79
2023-08-25T15:01:39.636Z,47.91
2023-08-25T15:04:07.640Z,48.06
2023-08-25T15:06:35.218Z,48.04
2023-08-25T15:09:02.748Z,48.33
2023-08-25T15:11:30.291Z,47.48
2023-08-25T15:13:57.988Z,47.52
2023-08-25T15:16:25.602Z,47.18
2023-08-25T15:18:53.192Z,47.73
2023-08-25T15:21:20.775Z,48.95
2023-08-25T15:23:49.533Z,48.69
2023-08-25T15:26:17.310Z,49.31
2023-08-25T15:28:44.813Z,49.15
2023-08-25T15:31:14.460Z,49.56
2023-08-25T15:33:42.875Z,49.52
2023-08-25T15:36:13.450Z,49.69
2023-08-25T15:38:41.377Z,51.12
2023-08-25T15:41:13.959Z,53.66
2023-08-25T15:43:42.326Z,54.66
2023-08-25T15:46:10.275Z,55.99
2023-08-25T15:48:37.928Z,55.73
2023-08-25T15:51:06.619Z,57.29
2023-08-25T15:53:34.117Z,56.04
2023-08-25T15:56:02.279Z,54.62
2023-08-25T15:58:29.832Z,55.84
2023-08-25T16:01:02.963Z,57.19
2023-08-25T16:03:31.384Z,60.76
2023-08-25T16:06:06.597Z,60.19
2023-08-25T16:08:34.501Z,61.20
2023-08-25T16:11:11.330Z,60.25
2023-08-25T16:13:39.737Z,59.32
2023-08-25T16:16:07.573Z,61.22
2023-08-25T16:18:36.435Z,62.37
2023-08-25T16:21:06.603Z,62.39
2023-08-25T16:23:37.183Z,60.91
2023-08-25T16:26:05.726Z,63.84
2023-08-25T16:28:34.393Z,64.21
2023-08-25T16:31:05.590Z,63.65
2023-08-25T16:33:37.024Z,64.72
2023-08-25T16:36:05.591Z,64.84
2023-08-25T16:38:33.806Z,65.48
2023-08-25T16:41:01.301Z,66.64
2023-08-25T16:43:28.857Z,67.14
2023-08-25T16:45:56.334Z,67.83
2023-08-25T16:48:24.121Z,66.67
2023-08-25T16:50:52.214Z,66.04
2023-08-25T16:53:20.884Z,66.43
2023-08-25T16:55:48.406Z,65.54
2023-08-25T16:58:15.964Z,65.92
2023-08-25T17:00:44.721Z,67.71
2023-08-25T17:03:12.626Z,67.81
2023-08-25T17:05:40.189Z,68.87
2023-08-25T17:08:09.514Z,69.44
2023-08-25T17:10:37.665Z,70.55
2023-08-25T17:13:05.450Z,70.40
2023-08-25T17:15:38.290Z,68.68
2023-08-25T17:18:06.624Z,68.37
2023-08-25T17:20:34.296Z,69.43
2023-08-25T17:23:01.965Z,69.55
2023-08-25T17:25:30.558Z,69.33
2023-08-25T17:27:58.679Z,68.30
2023-08-25T17:30:26.223Z,70.37
2023-08-25T17:32:55.337Z,70.71
2023-08-25T17:35:23.047Z,71.10
2023-08-25T17:37:50.839Z,70.08
2023-08-25T17:40:18.346Z,70.25
2023-08-25T17:42:45.813Z,69.94
2023-08-25T17:45:13.324Z,70.37
2023-08-25T17:47:40.878Z,70.61
2023-08-25T17:50:09.021Z,71.00
2023-08-25T17:52:36.523Z,71.11
2023-08-25T17:55:04.521Z,70.88
2023-08-25T17:57:33.440Z,71.24
2023-08-25T18:00:01.269Z,72.42
2023-08-25T18:02:28.806Z,71.90
2023-08-25T18:04:56.304Z,71.79
2023-08-25T18:07:23.816Z,71.59
2023-08-25T18:09:51.564Z,71.64
2023-08-25T18:12:19.083Z,69.26
2023-08-25T18:14:46.529Z,67.68
2023-08-25T18:17:14.055Z,68.63
2023-08-25T18:19:41.485Z,66.88
2023-08-25T18:22:09.083Z,67.26
2023-08-25T18:24:38.246Z,66.84
2023-08-25T18:27:06.128Z,67.58
2023-08-25T18:29:33.590Z,67.56
2023-08-25T18:32:02.729Z,67.80
2023-08-25T18:34:30.518Z,67.27
2023-08-25T18:36:58.051Z,68.02
2023-08-25T18:39:25.698Z,69.11
2023-08-25T18:41:53.196Z,68.62
2023-08-25T18:44:20.781Z,67.81
2023-08-25T18:46:48.248Z,66.46
2023-08-25T18:49:15.749Z,67.86
2023-08-25T18:51:45.002Z,67.36
2023-08-25T18:54:12.525Z,69.04
2023-08-25T18:56:39.982Z,68.94
2023-08-25T18:59:07.472Z,70.07
2023-08-25T19:01:35.289Z,69.42
2023-08-25T19:04:04.018Z,69.27
2023-08-25T19:06:31.588Z,69.63
2023-08-25T19:08:59.029Z,68.78
2023-08-25T19:11:26.803Z,68.44
2023-08-25T19:13:54.546Z,69.03
2023-08-25T19:16:22.176Z,69.00
2023-08-25T19:18:49.849Z,68.43
2023-08-25T19:21:17.513Z,68.65
2023-08-25T19:23:44.990Z,69.05
2023-08-25T19:26:15.015Z,67.85
2023-08-25T19:28:43.344Z,67.72
2023-08-25T19:31:17.373Z,67.85
2023-08-25T19:33:45.613Z,67.16
2023-08-25T19:36:15.826Z,67.09
2023-08-25T19:38:43.823Z,66.87
2023-08-25T19:41:11.571Z,66.88
2023-08-25T19:43:41.112Z,66.98
2023-08-25T19:46:08.617Z,67.57
2023-08-25T19:48:41.961Z,66.60
2023-08-25T19:51:09.685Z,67.75
2023-08-25T19:53:39.433Z,68.03
2023-08-25T19:56:07.688Z,68.90
2023-08-25T19:58:35.177Z,69.00
2023-08-25T20:01:04.141Z,69.26
2023-08-25T20:03:31.912Z,70.42
2023-08-25T20:06:06.519Z,70.37
2023-08-25T20:08:39.389Z,71.19
2023-08-25T20:11:09.615Z,71.40
2023-08-25T20:13:37.698Z,70.77
2023-08-25T20:16:06.265Z,70.66
2023-08-25T20:18:34.973Z,70.70
2023-08-25T20:21:02.716Z,71.72
2023-08-25T20:23:30.210Z,69.97
2023-08-25T20:25:57.740Z,69.66
2023-08-25T20:28:25.512Z,70.64
2023-08-25T20:30:53.508Z,70.83
2023-08-25T20:33:22.420Z,70.95
2023-08-25T20:35:51.186Z,70.68
2023-08-25T20:38:18.689Z,72.10
2023-08-25T20:40:47.811Z,71.87
2023-08-25T20:43:15.288Z,70.66
2023-08-25T20:45:48.681Z,70.71
2023-08-25T20:48:17.131Z,69.82
2023-08-25T20:50:50.858Z,70.44
2023-08-25T20:53:19.022Z,70.19
2023-08-25T20:55:46.623Z,69.60
2023-08-25T20:58:14.090Z,69.96
2023-08-25T21:00:41.512Z,70.47
2023-08-25T21:03:09.050Z,70.60
2023-08-25T21:05:36.651Z,70.54
2023-08-25T21:08:04.447Z,70.43
2023-08-25T21:10:31.913Z,70.48
2023-08-25T21:13:00.348Z,71.32
2023-08-25T21:15:28.420Z,71.55
2023-08-25T21:17:55.962Z,71.22
2023-08-25T21:20:26.120Z,71.48
2023-08-25T21:22:54.903Z,72.05
2023-08-25T21:25:22.654Z,71.71
2023-08-25T21:27:50.083Z,71.26
2023-08-25T21:30:17.733Z,71.06
2023-08-25T21:32:45.472Z,70.40
2023-08-25T21:35:12.976Z,70.07
2023-08-25T21:37:40.529Z,69.33
2023-08-25T21:40:09.657Z,69.48
2023-08-25T21:42:37.101Z,69.10
2023-08-25T21:45:05.175Z,69.14
2023-08-25T21:47:32.746Z,69.54
2023-08-25T21:50:03.367Z,69.20
2023-08-25T21:52:31.173Z,70.01
2023-08-25T21:54:58.622Z,70.03
